Time;durP1;ratioP1;P1;durP2;ratioP2;P2;SDS_P1;SDS_P2;PMS_P1;PMS_P2;Temp;Humidity;BMP_temperature;BMP_pressure;BME280_temperature;BME280_humidity;BME280_pressure;Samples;Min_cycle;Max_cycle;Signal;HPM_P1;HPM_P2
2024/01/16 00:01:42;;;;;;;22.47;20.10;;;;;;;2.26;93.04;91266.59;5011526;28;20961;-73
2024/01/16 00:04:07;;;;;;;23.10;18.57;;;;;;;2.48;92.18;91294.59;5029151;28;20934;-73
2024/01/16 00:06:33;;;;;;;21.90;19.63;;;;;;;2.86;92.85;91278.53;5025458;28;20285;-73
2024/01/16 00:08:58;;;;;;;21.07;18.83;;;;;;;2.74;92.47;91291.69;5029561;28;20209;-73
2024/01/16 00:11:23;;;;;;;20.70;18.47;;;;;;;2.82;93.31;91286.00;5028437;28;20203;-73
2024/01/16 00:13:49;;;;;;;20.93;18.03;;;;;;;2.31;96.00;91291.56;5027417;28;20232;-73
2024/01/16 00:16:14;;;;;;;19.57;17.67;;;;;;;2.66;95.59;91261.31;5022002;28;20195;-73
2024/01/16 00:18:39;;;;;;;22.87;20.53;;;;;;;2.62;96.93;91280.91;5027124;28;20219;-73
2024/01/16 00:21:05;;;;;;;22.30;18.40;;;;;;;2.93;95.46;91277.19;5024471;28;20611;-73
2024/01/16 00:23:33;;;;;;;23.83;20.23;;;;;;;2.39;97.90;91280.72;5028513;28;20218;-73
2024/01/16 00:25:58;;;;;;;26.67;22.83;;;;;;;2.68;96.02;91291.97;5020276;28;20227;-74
2024/01/16 00:28:24;;;;;;;22.70;19.60;;;;;;;3.07;94.64;91290.25;5010918;28;20215;-74
2024/01/16 00:30:49;;;;;;;24.37;20.37;;;;;;;2.94;93.97;91272.81;5021632;28;20267;-74
2024/01/16 00:33:14;;;;;;;21.03;18.80;;;;;;;3.03;94.52;91281.53;5027687;28;20228;-75
2024/01/16 00:35:40;;;;;;;22.37;19.50;;;;;;;3.26;94.41;91286.03;5019023;28;20266;-74
2024/01/16 00:38:05;;;;;;;24.97;19.17;;;;;;;3.09;92.82;91286.41;5029008;28;20235;-74
2024/01/16 00:40:30;;;;;;;25.13;19.33;;;;;;;3.08;92.37;91307.28;5024602;28;20186;-74
2024/01/16 00:42:56;;;;;;;28.10;20.20;;;;;;;2.65;94.59;91267.50;5028040;28;20866;-74
2024/01/16 00:45:22;;;;;;;36.00;25.93;;;;;;;2.57;94.67;91318.81;5029350;28;20187;-75
2024/01/16 00:47:47;;;;;;;23.90;18.70;;;;;;;2.42;93.53;91329.13;5021294;28;20239;-76
2024/01/16 00:50:13;;;;;;;21.40;19.23;;;;;;;2.91;92.32;91337.78;5023434;28;20187;-75
2024/01/16 00:52:38;;;;;;;25.67;21.40;;;;;;;3.01;91.68;91327.41;5028921;28;20210;-75
2024/01/16 00:55:04;;;;;;;21.30;19.07;;;;;;;2.67;93.68;91326.50;5022048;28;20207;-75
2024/01/16 00:57:30;;;;;;;21.63;19.37;;;;;;;2.89;93.21;91335.47;5020497;28;20283;-76
2024/01/16 00:59:55;;;;;;;21.17;18.57;;;;;;;2.91;91.68;91335.19;5013587;28;20207;-75
2024/01/16 01:02:20;;;;;;;21.77;17.03;;;;;;;2.84;92.35;91311.50;5024282;28;20230;-75
2024/01/16 01:04:46;;;;;;;20.27;18.10;;;;;;;2.57;93.84;91349.72;5029339;28;20190;-75
2024/01/16 01:07:14;;;;;;;20.03;17.93;;;;;;;2.24;94.62;91317.56;5025097;28;20222;-75
2024/01/16 01:09:40;;;;;;;18.87;16.87;;;;;;;2.70;93.48;91339.63;5010526;28;20215;-74
2024/01/16 01:12:06;;;;;;;19.93;17.83;;;;;;;2.91;92.94;91340.34;5026139;28;20249;-75
2024/01/16 01:14:31;;;;;;;20.77;18.57;;;;;;;2.69;92.52;91334.75;5028980;28;20218;-75
2024/01/16 01:16:57;;;;;;;19.57;16.60;;;;;;;2.69;92.49;91327.00;5028706;28;20258;-75
2024/01/16 01:19:22;;;;;;;21.67;19.10;;;;;;;2.78;93.16;91346.84;5029066;28;20190;-75
2024/01/16 01:21:49;;;;;;;20.33;18.13;;;;;;;2.73;93.69;91348.63;5015599;28;20322;-75
2024/01/16 01:24:14;;;;;;;19.90;16.83;;;;;;;2.86;93.76;91330.06;5024720;28;20197;-75
2024/01/16 01:26:43;;;;;;;21.63;17.23;;;;;;;2.87;93.54;91341.91;5027995;28;20183;-74
2024/01/16 01:29:08;;;;;;;19.70;17.17;;;;;;;3.02;93.06;91344.41;5028964;28;20190;-75
2024/01/16 01:31:34;;;;;;;20.73;16.77;;;;;;;3.16;92.48;91335.06;5060816;28;20187;-75
2024/01/16 01:33:59;;;;;;;19.07;17.03;;;;;;;3.26;93.09;91350.50;5015198;28;20203;-75
2024/01/16 01:36:24;;;;;;;18.63;16.33;;;;;;;3.20;93.86;91347.19;5024420;28;20192;-75
2024/01/16 01:38:50;;;;;;;17.83;16.13;;;;;;;3.23;94.64;91351.03;5015982;28;20230;-74
2024/01/16 01:41:15;;;;;;;18.93;16.93;;;;;;;3.48;93.77;91342.41;5028430;28;20194;-75
2024/01/16 01:43:40;;;;;;;18.83;16.87;;;;;;;2.86;96.12;91288.81;5031708;28;20779;-76
2024/01/16 01:46:09;;;;;;;18.10;16.10;;;;;;;3.39;95.59;91337.03;5030718;28;20233;-75
2024/01/16 01:48:35;;;;;;;17.67;16.07;;;;;;;3.18;96.99;91305.44;5030469;28;20231;-74
2024/01/16 01:51:01;;;;;;;16.77;15.23;;;;;;;3.52;96.28;91322.78;5024064;28;20206;-74
2024/01/16 01:53:28;;;;;;;16.37;14.93;;;;;;;3.29;97.52;91314.66;5031527;28;20248;-75
2024/01/16 01:55:55;;;;;;;16.23;14.67;;;;;;;3.52;97.46;91317.63;5029521;28;20215;-75
2024/01/16 01:58:20;;;;;;;16.23;14.70;;;;;;;3.46;98.54;91329.78;5030330;28;20222;-74
2024/01/16 02:00:46;;;;;;;16.63;15.33;;;;;;;3.42;100.00;91328.00;5028783;28;20187;-75
2024/01/16 02:03:12;;;;;;;16.73;15.30;;;;;;;3.40;100.00;91336.00;5021096;28;20218;-75
2024/01/16 02:05:39;;;;;;;16.27;14.87;;;;;;;3.53;100.00;91343.16;5055697;28;20243;-74
2024/01/16 02:08:05;;;;;;;14.77;13.60;;;;;;;3.69;100.00;91339.44;5014484;28;20235;-75
2024/01/16 02:10:31;;;;;;;15.43;14.00;;;;;;;3.77;99.65;91331.13;5023431;28;20183;-75
2024/01/16 02:12:57;;;;;;;14.77;13.67;;;;;;;3.69;100.00;91357.50;5025982;28;20234;-74
2024/01/16 02:15:23;;;;;;;13.20;11.87;;;;;;;3.62;100.00;91343.34;5030354;28;20233;-74
2024/01/16 02:17:49;;;;;;;14.53;13.17;;;;;;;3.87;100.00;91345.78;5018106;28;20219;-75
2024/01/16 02:20:14;;;;;;;13.57;12.67;;;;;;;3.71;100.00;91347.69;5006710;28;20186;-75
2024/01/16 02:22:45;;;;;;;14.23;13.17;;;;;;;3.85;100.00;91338.31;5018103;28;20238;-74
2024/01/16 02:25:11;;;;;;;13.90;12.80;;;;;;;3.92;100.00;91346.50;5030390;28;20429;-75
2024/01/16 02:27:37;;;;;;;12.57;11.67;;;;;;;3.61;100.00;91362.47;5015018;28;20232;-74
2024/01/16 02:30:02;;;;;;;14.50;13.30;;;;;;;3.54;100.00;91362.75;5005477;28;20194;-75
2024/01/16 02:32:28;;;;;;;14.13;13.13;;;;;;;3.55;100.00;91373.84;5010708;28;20219;-74
2024/01/16 02:34:53;;;;;;;12.57;11.67;;;;;;;3.75;100.00;91369.31;5001116;28;20228;-75
2024/01/16 02:37:18;;;;;;;13.00;12.10;;;;;;;3.45;100.00;91364.34;5008126;28;20238;-75
2024/01/16 02:39:44;;;;;;;12.87;12.00;;;;;;;3.86;100.00;91365.66;4996302;28;21095;-74
2024/01/16 02:42:09;;;;;;;13.97;12.87;;;;;;;3.73;100.00;91384.31;4995479;28;20296;-75
2024/01/16 02:44:34;;;;;;;13.17;12.30;;;;;;;3.98;100.00;91368.69;5006353;28;20192;-75
2024/01/16 02:47:00;;;;;;;13.83;12.90;;;;;;;4.08;100.00;91373.75;4998101;28;20232;-75
2024/01/16 02:49:25;;;;;;;14.67;13.47;;;;;;;3.62;100.00;91359.63;4999577;28;20187;-74
2024/01/16 02:51:51;;;;;;;15.10;13.67;;;;;;;3.83;100.00;91361.03;5017523;28;20226;-74
2024/01/16 02:54:17;;;;;;;13.20;12.20;;;;;;;3.80;100.00;91360.81;5033629;28;20202;-75
2024/01/16 02:56:42;;;;;;;13.37;12.33;;;;;;;3.71;100.00;91414.00;5030873;28;20195;-74
2024/01/16 02:59:08;;;;;;;13.97;12.93;;;;;;;3.90;100.00;91417.50;5027547;28;20239;-75
2024/01/16 03:01:34;;;;;;;13.43;12.43;;;;;;;3.99;100.00;91421.84;5029146;28;20186;-75
2024/01/16 03:03:59;;;;;;;12.73;11.83;;;;;;;4.00;100.00;91431.13;5026860;28;20198;-75
2024/01/16 03:06:25;;;;;;;15.00;13.80;;;;;;;4.05;100.00;91450.97;5022312;28;20191;-75
2024/01/16 03:08:51;;;;;;;13.87;12.77;;;;;;;4.15;100.00;91474.94;5016456;28;20227;-74
2024/01/16 03:11:16;;;;;;;16.07;14.67;;;;;;;3.82;100.00;91467.88;5014541;28;20203;-75
2024/01/16 03:13:43;;;;;;;16.73;15.53;;;;;;;4.24;100.00;91475.91;5029307;28;20357;-75
2024/01/16 03:16:09;;;;;;;16.10;14.77;;;;;;;3.84;100.00;91507.13;5028627;28;20249;-74
2024/01/16 03:18:35;;;;;;;19.87;18.07;;;;;;;3.84;100.00;91501.97;5013947;28;20247;-75
2024/01/16 03:21:01;;;;;;;14.97;13.77;;;;;;;3.71;100.00;91501.72;5017800;28;20171;-74
2024/01/16 03:23:26;;;;;;;15.80;14.43;;;;;;;3.83;100.00;91517.72;5023493;28;20709;-75
2024/01/16 03:25:52;;;;;;;22.17;19.83;;;;;;;3.83;100.00;91530.63;5027524;28;20920;-71
2024/01/16 03:28:17;;;;;;;17.17;15.67;;;;;;;4.14;100.00;91532.78;5023563;28;20219;-73
2024/01/16 03:30:43;;;;;;;19.33;17.40;;;;;;;3.90;100.00;91537.03;5022313;28;20187;-72
2024/01/16 03:33:08;;;;;;;14.40;13.43;;;;;;;3.86;100.00;91523.09;5013811;28;20216;-73
2024/01/16 03:35:33;;;;;;;13.97;12.97;;;;;;;3.78;100.00;91543.53;5026250;28;20269;-72
2024/01/16 03:37:59;;;;;;;14.63;13.63;;;;;;;3.78;100.00;91546.91;5029210;28;20219;-73
2024/01/16 03:40:24;;;;;;;13.77;12.83;;;;;;;3.72;100.00;91545.34;5021125;28;20241;-73
2024/01/16 03:42:49;;;;;;;13.90;12.70;;;;;;;3.60;100.00;91554.41;5024733;28;20222;-73
2024/01/16 03:45:15;;;;;;;13.53;12.63;;;;;;;3.46;100.00;91558.56;5021754;28;20258;-72
2024/01/16 03:47:40;;;;;;;14.57;13.57;;;;;;;3.25;100.00;91552.69;5021514;28;20215;-72
2024/01/16 03:50:06;;;;;;;13.77;12.97;;;;;;;3.12;100.00;91564.28;5012764;28;20179;-72
2024/01/16 03:52:31;;;;;;;15.13;14.23;;;;;;;3.08;100.00;91565.06;5018282;28;20253;-73
2024/01/16 03:54:56;;;;;;;13.70;12.70;;;;;;;2.96;100.00;91569.69;5016721;28;20211;-72
2024/01/16 03:57:22;;;;;;;14.80;13.90;;;;;;;3.02;100.00;91572.03;5028834;28;20214;-72
2024/01/16 03:59:47;;;;;;;15.20;13.80;;;;;;;2.83;100.00;91578.72;5028203;28;20218;-72
2024/01/16 04:02:13;;;;;;;13.40;12.43;;;;;;;2.65;100.00;91588.75;5015870;28;20238;-71
2024/01/16 04:04:38;;;;;;;13.70;12.80;;;;;;;2.60;100.00;91589.50;5022255;28;20226;-72
2024/01/16 04:07:03;;;;;;;13.83;13.03;;;;;;;2.64;100.00;91594.94;5021217;28;20286;-72
2024/01/16 04:09:29;;;;;;;13.07;12.40;;;;;;;2.49;100.00;91598.25;5027346;28;20186;-72
2024/01/16 04:11:54;;;;;;;11.90;11.10;;;;;;;2.55;100.00;91607.53;5029231;28;20249;-72
2024/01/16 04:14:20;;;;;;;12.87;12.27;;;;;;;2.57;100.00;91615.03;5029223;28;20207;-72
2024/01/16 04:16:45;;;;;;;13.30;12.50;;;;;;;2.51;100.00;91616.78;5025036;28;20206;-72
2024/01/16 04:19:11;;;;;;;13.93;13.13;;;;;;;2.44;100.00;91633.53;5029325;28;20178;-72
2024/01/16 04:21:37;;;;;;;14.27;13.37;;;;;;;2.53;100.00;91634.56;5023755;28;20219;-72
2024/01/16 04:24:02;;;;;;;13.63;12.73;;;;;;;2.52;100.00;91641.50;5022262;28;20187;-73
2024/01/16 04:26:28;;;;;;;13.80;12.80;;;;;;;2.49;100.00;91636.13;5028905;28;20206;-72
2024/01/16 04:28:53;;;;;;;13.23;12.33;;;;;;;2.52;100.00;91630.47;5029316;28;20194;-72
2024/01/16 04:31:19;;;;;;;12.97;12.17;;;;;;;2.60;100.00;91640.28;5021579;28;20201;-72
2024/01/16 04:33:44;;;;;;;12.70;11.90;;;;;;;2.31;100.00;91624.47;5017052;28;20235;-72
2024/01/16 04:36:10;;;;;;;14.57;13.67;;;;;;;2.45;100.00;91651.28;5026009;28;20229;-72
2024/01/16 04:38:35;;;;;;;13.30;12.50;;;;;;;2.35;100.00;91653.06;5010147;28;20215;-72
2024/01/16 04:41:02;;;;;;;12.93;12.23;;;;;;;2.44;100.00;91659.28;5027722;28;20225;-72
2024/01/16 04:43:28;;;;;;;14.20;13.30;;;;;;;2.10;100.00;91614.34;5027509;28;20241;-71
2024/01/16 04:45:53;;;;;;;13.03;12.33;;;;;;;2.39;100.00;91664.41;5027616;28;20191;-72
2024/01/16 04:48:18;;;;;;;13.27;12.57;;;;;;;2.24;100.00;91652.22;5025473;28;20219;-77
2024/01/16 04:50:45;;;;;;;12.33;11.63;;;;;;;2.29;100.00;91684.97;5029223;28;20185;-76
2024/01/16 04:53:11;;;;;;;12.87;12.17;;;;;;;2.42;100.00;91698.16;5024574;28;20252;-75
2024/01/16 04:55:36;;;;;;;13.47;12.60;;;;;;;2.50;100.00;91702.81;5016399;28;20227;-75
2024/01/16 04:58:02;;;;;;;12.30;11.70;;;;;;;2.31;100.00;91685.47;5027222;28;20226;-80
2024/01/16 05:00:27;;;;;;;12.73;12.13;;;;;;;2.42;100.00;91708.47;5024545;28;20183;-76
2024/01/16 05:02:52;;;;;;;12.03;11.40;;;;;;;2.52;100.00;91720.59;5028471;28;20231;-74
2024/01/16 05:05:18;;;;;;;13.03;12.23;;;;;;;2.37;100.00;91720.50;5025002;28;20194;-78
2024/01/16 05:07:44;;;;;;;12.27;11.67;;;;;;;2.45;100.00;91725.19;5028091;28;20226;-79
2024/01/16 05:10:12;;;;;;;13.17;12.50;;;;;;;2.17;100.00;91723.00;5031813;28;20191;-77
2024/01/16 05:12:38;;;;;;;12.83;12.13;;;;;;;2.36;100.00;91749.88;5024392;28;20226;-75
2024/01/16 05:15:04;;;;;;;12.70;12.00;;;;;;;2.06;100.00;91719.59;5020697;28;20213;-77
2024/01/16 05:17:30;;;;;;;11.77;11.17;;;;;;;2.20;100.00;91755.97;5029975;28;20211;-83
2024/01/16 05:19:56;;;;;;;13.93;12.93;;;;;;;2.28;100.00;91747.78;5031736;28;20281;-81
2024/01/16 05:22:21;;;;;;;12.43;11.63;;;;;;;2.39;100.00;91768.19;5030875;28;20238;-81
2024/01/16 05:24:46;;;;;;;14.23;13.27;;;;;;;2.22;100.00;91754.72;5060669;28;20175;-82
2024/01/16 05:27:12;;;;;;;12.83;12.13;;;;;;;2.22;100.00;91766.78;5025035;28;20219;-75
2024/01/16 05:29:37;;;;;;;13.00;12.13;;;;;;;2.35;100.00;91797.25;5031068;28;20182;-80
2024/01/16 05:32:03;;;;;;;13.70;12.90;;;;;;;2.32;100.00;91795.94;5028512;28;20241;-79
2024/01/16 05:34:29;;;;;;;14.47;13.53;;;;;;;2.34;100.00;91813.72;5022134;28;20497;-85
2024/01/16 05:36:54;;;;;;;11.83;11.13;;;;;;;2.72;100.00;91813.44;5030923;28;20242;-75
2024/01/16 05:39:21;;;;;;;11.67;11.07;;;;;;;2.28;100.00;91799.25;5029454;28;20215;-75
2024/01/16 05:41:46;;;;;;;12.03;11.50;;;;;;;2.29;100.00;91814.47;5026538;28;21075;-75
2024/01/16 05:44:11;;;;;;;12.90;12.20;;;;;;;2.19;100.00;91818.78;5014137;28;20180;-76
2024/01/16 05:46:37;;;;;;;11.70;11.17;;;;;;;2.09;100.00;91832.34;5019726;28;20303;-75
2024/01/16 05:49:03;;;;;;;10.30;9.90;;;;;;;2.10;100.00;91851.91;5026375;28;20575;-75
2024/01/16 05:51:29;;;;;;;12.63;12.03;;;;;;;2.23;100.00;91876.47;5028762;28;20191;-75
2024/01/16 05:53:55;;;;;;;11.50;11.00;;;;;;;2.49;100.00;91865.34;5030302;28;20187;-75
2024/01/16 05:56:20;;;;;;;11.27;10.77;;;;;;;2.31;100.00;91863.13;5024637;28;20931;-75
2024/01/16 05:58:46;;;;;;;11.57;10.97;;;;;;;2.62;100.00;91880.34;5029631;28;20222;-75
2024/01/16 06:01:14;;;;;;;11.60;11.00;;;;;;;2.56;98.14;91891.66;5022347;28;20215;-74
2024/01/16 06:03:40;;;;;;;11.87;11.37;;;;;;;2.52;97.22;91881.06;5028258;28;20882;-75
2024/01/16 06:06:07;;;;;;;10.37;9.87;;;;;;;2.76;96.32;91907.25;5025658;28;20179;-75
2024/01/16 06:08:32;;;;;;;14.20;13.50;;;;;;;2.68;97.27;91889.66;5021965;28;20207;-77
2024/01/16 06:10:58;;;;;;;11.60;11.03;;;;;;;2.61;95.58;91920.81;5030170;28;20175;-75
2024/01/16 06:13:23;;;;;;;11.90;11.37;;;;;;;2.76;95.12;91922.69;5028507;28;20261;-75
2024/01/16 06:15:48;;;;;;;11.50;10.80;;;;;;;2.74;94.79;91924.78;5029664;28;20218;-75
2024/01/16 06:18:14;;;;;;;10.53;10.07;;;;;;;2.69;91.63;91935.03;5030411;28;20329;-74
2024/01/16 06:20:39;;;;;;;11.33;10.83;;;;;;;2.92;91.73;91929.50;5025667;28;20187;-75
2024/01/16 06:23:04;;;;;;;11.40;10.90;;;;;;;2.99;91.89;91938.56;5026604;28;20215;-72
2024/01/16 06:25:30;;;;;;;11.53;11.00;;;;;;;2.89;92.40;91943.69;5022995;28;20190;-76
2024/01/16 06:27:55;;;;;;;10.43;9.83;;;;;;;2.73;92.71;91948.97;5030351;28;20222;-77
2024/01/16 06:30:21;;;;;;;12.47;11.80;;;;;;;2.89;91.65;91951.41;5025310;28;20202;-75
2024/01/16 06:32:48;;;;;;;11.70;11.10;;;;;;;2.86;92.34;91948.56;5022699;28;20238;-75
2024/01/16 06:35:13;;;;;;;11.63;11.13;;;;;;;3.04;93.05;91966.19;5021971;28;20377;-77
2024/01/16 06:37:39;;;;;;;11.40;10.80;;;;;;;2.87;91.48;91975.88;5028311;28;20223;-77
2024/01/16 06:40:05;;;;;;;11.63;11.07;;;;;;;2.78;88.91;91962.69;5028721;28;20195;-75
2024/01/16 06:42:31;;;;;;;10.80;10.20;;;;;;;2.70;86.97;91976.00;5028530;28;20225;-77
2024/01/16 06:44:56;;;;;;;10.87;10.37;;;;;;;2.54;84.40;91991.56;5024555;28;20186;-76
2024/01/16 06:47:23;;;;;;;11.37;10.77;;;;;;;2.44;84.77;92001.81;5029774;28;20229;-77
2024/01/16 06:49:49;;;;;;;11.27;10.67;;;;;;;2.42;87.19;92009.00;5029948;28;20182;-77
2024/01/16 06:52:14;;;;;;;11.50;10.93;;;;;;;2.21;84.34;92002.09;5011301;28;20225;-78
2024/01/16 06:54:40;;;;;;;11.70;11.20;;;;;;;2.36;84.53;92015.13;5007659;28;20202;-76
2024/01/16 06:57:05;;;;;;;11.00;10.60;;;;;;;2.07;85.86;92026.69;5015009;28;20246;-77
2024/01/16 06:59:30;;;;;;;10.60;10.10;;;;;;;2.10;87.25;92039.06;5011389;28;20239;-78
2024/01/16 07:01:56;;;;;;;11.33;10.83;;;;;;;1.88;85.40;92022.84;5009784;28;20288;-78
2024/01/16 07:04:21;;;;;;;11.03;10.33;;;;;;;1.92;87.09;92039.34;5016187;28;20187;-76
2024/01/16 07:06:47;;;;;;;10.50;10.10;;;;;;;1.95;86.58;92033.72;5013087;28;20299;-76
2024/01/16 07:09:12;;;;;;;10.70;10.20;;;;;;;2.04;88.12;92038.22;5021452;28;20192;-76
2024/01/16 07:11:42;;;;;;;10.47;10.07;;;;;;;1.90;86.80;92049.88;5026152;28;20175;-76
2024/01/16 07:14:08;;;;;;;11.43;10.93;;;;;;;1.88;86.98;92048.59;5006310;28;20243;-77
2024/01/16 07:16:33;;;;;;;11.33;10.83;;;;;;;1.82;86.44;92029.75;5008144;28;20192;-76
2024/01/16 07:18:59;;;;;;;11.53;10.97;;;;;;;1.84;86.40;92068.09;5005492;28;20242;-76
2024/01/16 07:21:24;;;;;;;10.97;10.57;;;;;;;2.27;86.30;92079.16;5004211;28;20199;-76
2024/01/16 07:23:50;;;;;;;11.10;10.60;;;;;;;2.44;89.95;92089.38;5027265;28;20223;-78
2024/01/16 07:26:16;;;;;;;11.13;10.63;;;;;;;2.14;85.85;92094.97;5027315;28;20195;-78
2024/01/16 07:28:42;;;;;;;10.60;10.20;;;;;;;2.03;86.11;92098.44;5005651;28;20228;-77
2024/01/16 07:31:09;;;;;;;11.30;10.67;;;;;;;2.03;85.95;92088.16;5008967;28;20923;-77
2024/01/16 07:33:34;;;;;;;11.43;10.83;;;;;;;1.96;85.98;92123.56;5009280;28;20227;-78
2024/01/16 07:36:00;;;;;;;11.13;10.60;;;;;;;1.84;86.51;92119.56;5008582;28;20258;-77
2024/01/16 07:38:25;;;;;;;9.87;9.40;;;;;;;1.64;86.06;92105.41;5005632;28;20223;-76
2024/01/16 07:40:51;;;;;;;10.60;10.20;;;;;;;1.77;86.44;92121.50;5003681;28;20187;-77
2024/01/16 07:43:16;;;;;;;10.93;10.47;;;;;;;1.90;86.40;92139.19;5006755;28;20215;-76
2024/01/16 07:45:41;;;;;;;9.73;9.33;;;;;;;1.74;86.31;92130.50;5008859;28;20218;-77
2024/01/16 07:48:08;;;;;;;9.40;9.10;;;;;;;1.92;85.63;92132.00;5008471;28;20231;-77
2024/01/16 07:50:33;;;;;;;10.80;10.40;;;;;;;1.81;86.96;92136.25;4998102;28;20188;-77
2024/01/16 07:52:59;;;;;;;11.03;10.63;;;;;;;1.90;85.67;92136.63;5014795;28;20241;-77
2024/01/16 07:55:24;;;;;;;11.43;10.93;;;;;;;1.83;86.20;92139.38;5027770;28;20290;-78
2024/01/16 07:57:49;;;;;;;11.00;10.50;;;;;;;1.93;86.41;92156.75;5008567;28;20219;-80
2024/01/16 08:00:15;;;;;;;11.03;10.63;;;;;;;1.95;85.97;92157.25;5003926;28;20198;-77
2024/01/16 08:02:41;;;;;;;11.00;10.50;;;;;;;2.11;85.47;92177.03;5006188;28;20242;-77
2024/01/16 08:05:07;;;;;;;11.07;10.57;;;;;;;2.00;85.78;92165.06;5002612;28;20177;-78
2024/01/16 08:07:32;;;;;;;11.37;10.87;;;;;;;2.35;85.31;92183.53;5008961;28;20290;-77
2024/01/16 08:09:57;;;;;;;10.40;10.00;;;;;;;2.23;84.96;92186.22;5006098;28;20253;-76
2024/01/16 08:12:23;;;;;;;11.03;10.53;;;;;;;2.10;84.61;92170.34;4995699;28;20310;-84
2024/01/16 08:14:48;;;;;;;10.60;10.17;;;;;;;2.22;85.45;92173.59;5009531;28;20250;-78
2024/01/16 08:17:14;;;;;;;10.30;9.80;;;;;;;2.05;85.10;92196.00;5002106;28;20219;-84
2024/01/16 08:19:39;;;;;;;10.47;9.97;;;;;;;2.13;85.71;92200.75;5002152;28;20346;-76
2024/01/16 08:22:05;;;;;;;10.97;10.53;;;;;;;2.07;84.98;92170.81;5004894;28;20246;-76
2024/01/16 08:24:31;;;;;;;11.00;10.53;;;;;;;2.17;85.91;92214.72;5019175;28;20214;-77
2024/01/16 08:26:59;;;;;;;11.27;10.77;;;;;;;2.03;85.43;92234.06;5006372;28;20227;-77
2024/01/16 08:29:25;;;;;;;11.20;10.67;;;;;;;2.02;86.65;92228.16;5024896;28;20190;-78
2024/01/16 08:31:54;;;;;;;10.67;10.27;;;;;;;2.28;85.38;92235.22;5025558;28;20514;-79
2024/01/16 08:34:19;;;;;;;11.10;10.70;;;;;;;2.21;85.39;92238.97;5025165;28;20261;-78
2024/01/16 08:36:46;;;;;;;10.87;10.13;;;;;;;2.05;85.46;92239.78;5019767;28;20182;-78
2024/01/16 08:39:11;;;;;;;10.13;9.80;;;;;;;2.14;84.43;92243.50;5007348;28;20175;-78
2024/01/16 08:41:36;;;;;;;10.23;9.87;;;;;;;2.11;84.32;92254.28;5008181;28;20195;-78
2024/01/16 08:44:02;;;;;;;11.07;10.37;;;;;;;1.88;86.66;92241.59;5006615;28;20207;-76
2024/01/16 08:46:27;;;;;;;11.37;10.87;;;;;;;1.92;85.19;92263.25;5010409;28;20233;-77
2024/01/16 08:48:53;;;;;;;11.33;10.73;;;;;;;1.89;86.15;92253.44;5007638;28;20228;-78
2024/01/16 08:51:19;;;;;;;10.13;9.73;;;;;;;1.92;86.12;92260.69;5002160;28;20194;-77
2024/01/16 08:53:45;;;;;;;10.73;10.20;;;;;;;1.96;86.14;92266.94;5008431;28;20242;-76
2024/01/16 08:56:12;;;;;;;11.17;10.67;;;;;;;1.91;84.67;92259.91;5001814;28;20214;-76
2024/01/16 08:58:38;;;;;;;10.27;9.87;;;;;;;2.03;85.02;92273.47;5010589;28;20338;-78
2024/01/16 09:01:06;;;;;;;10.87;10.37;;;;;;;1.92;84.01;92265.81;5011527;28;20218;-76
2024/01/16 09:03:35;;;;;;;11.03;10.30;;;;;;;1.92;84.57;92260.69;5006846;28;20227;-75
2024/01/16 09:06:01;;;;;;;11.43;10.93;;;;;;;1.94;85.23;92274.88;5010918;28;20190;-77
2024/01/16 09:08:27;;;;;;;10.37;9.97;;;;;;;2.07;84.91;92294.38;5011254;28;20227;-79
2024/01/16 09:10:53;;;;;;;10.50;10.03;;;;;;;2.17;83.78;92285.00;5011683;28;20206;-78
2024/01/16 09:13:20;;;;;;;10.80;10.30;;;;;;;2.35;83.60;92286.56;5011596;28;20250;-79
2024/01/16 09:15:46;;;;;;;11.53;11.03;;;;;;;2.12;82.08;92264.34;5006070;28;20215;-78
2024/01/16 09:18:12;;;;;;;11.57;10.97;;;;;;;2.32;81.75;92266.44;5009383;28;20220;-79
2024/01/16 09:20:37;;;;;;;11.40;10.90;;;;;;;2.69;81.85;92304.25;5008996;28;20215;-81
2024/01/16 09:23:02;;;;;;;11.83;11.23;;;;;;;2.49;81.65;92298.84;5000142;28;20215;-78
2024/01/16 09:25:29;;;;;;;11.13;10.53;;;;;;;2.60;81.11;92297.22;5008123;28;20203;-79
2024/01/16 09:27:55;;;;;;;11.43;10.93;;;;;;;2.65;81.41;92303.19;5003754;28;20231;-78
2024/01/16 09:30:22;;;;;;;11.33;10.77;;;;;;;2.63;80.98;92309.63;5009316;28;20271;-79
2024/01/16 09:32:48;;;;;;;9.90;9.47;;;;;;;2.47;81.13;92316.34;5003195;28;20228;-75
2024/01/16 09:35:13;;;;;;;11.37;10.77;;;;;;;2.60;81.75;92310.84;5010512;28;20278;-76
2024/01/16 09:37:39;;;;;;;10.50;10.10;;;;;;;2.98;81.16;92312.63;5006562;28;20304;-77
2024/01/16 09:40:05;;;;;;;11.27;10.57;;;;;;;2.81;79.35;92307.53;5001686;28;20195;-76
2024/01/16 09:42:31;;;;;;;12.00;11.37;;;;;;;2.94;78.64;92311.56;5005363;28;20240;-77
2024/01/16 09:44:57;;;;;;;11.27;10.77;;;;;;;2.90;78.58;92308.66;5009715;28;20258;-76
2024/01/16 09:47:25;;;;;;;9.93;9.43;;;;;;;2.94;79.97;92303.81;5015374;28;20226;-79
2024/01/16 09:49:50;;;;;;;10.10;9.67;;;;;;;2.79;78.12;92321.66;5018021;28;20909;-76
2024/01/16 09:52:16;;;;;;;11.17;10.67;;;;;;;2.79;77.72;92316.50;5017698;28;20241;-78
2024/01/16 09:54:41;;;;;;;10.67;10.17;;;;;;;3.08;77.20;92328.22;5005517;28;20226;-78
2024/01/16 09:57:07;;;;;;;10.77;10.27;;;;;;;2.96;76.81;92327.53;5011214;28;20231;-78
2024/01/16 09:59:36;;;;;;;10.73;10.33;;;;;;;3.09;75.92;92312.50;5011249;28;20191;-78
2024/01/16 10:02:06;;;;;;;10.37;9.97;;;;;;;3.17;77.23;92326.78;5007166;28;20251;-80
2024/01/16 10:04:33;;;;;;;11.93;11.33;;;;;;;2.99;78.66;92311.59;5002596;28;20188;-77
2024/01/16 10:06:59;;;;;;;10.90;10.43;;;;;;;3.12;77.12;92306.09;5007981;28;20216;-75
2024/01/16 10:09:25;;;;;;;10.80;10.27;;;;;;;3.01;76.90;92319.88;5007254;28;20255;-77
2024/01/16 10:11:51;;;;;;;10.40;10.00;;;;;;;2.89;77.48;92321.78;5011498;28;20250;-81
2024/01/16 10:14:18;;;;;;;10.80;10.23;;;;;;;3.12;75.84;92322.34;5011356;28;20183;-79
2024/01/16 10:16:59;;;;;;;10.20;9.80;;;;;;;3.74;74.61;92321.94;5009215;28;20187;-80
2024/01/16 10:19:29;;;;;;;10.57;10.07;;;;;;;3.86;73.44;92317.44;4998261;28;20188;-80
2024/01/16 10:22:04;;;;;;;10.47;10.07;;;;;;;3.83;73.56;92325.66;5008758;28;20273;-79
2024/01/16 10:24:31;;;;;;;10.83;10.27;;;;;;;3.80;73.61;92332.09;5024371;28;20198;-79
2024/01/16 10:27:00;;;;;;;10.20;9.73;;;;;;;3.58;73.48;92331.34;5026621;28;20227;-80
2024/01/16 10:29:26;;;;;;;11.87;11.17;;;;;;;3.42;74.85;92315.97;5012986;28;20215;-81
2024/01/16 10:31:51;;;;;;;10.57;10.07;;;;;;;3.75;74.83;92326.88;5004267;28;20238;-79
2024/01/16 10:34:21;;;;;;;11.13;10.73;;;;;;;3.50;73.69;92321.47;5009799;28;20231;-79
2024/01/16 10:36:47;;;;;;;11.30;10.73;;;;;;;3.61;73.67;92323.13;5004168;28;20240;-77
2024/01/16 10:39:13;;;;;;;12.40;11.80;;;;;;;3.40;73.61;92321.34;5002193;28;20179;-78
2024/01/16 10:41:39;;;;;;;11.33;10.87;;;;;;;3.67;74.47;92326.53;5004088;28;20210;-80
2024/01/16 10:44:07;;;;;;;10.67;10.13;;;;;;;3.61;74.04;92325.69;5002846;28;20191;-79
2024/01/16 10:46:32;;;;;;;10.73;10.13;;;;;;;3.42;73.28;92339.97;5015174;28;20211;-77
2024/01/16 10:49:02;;;;;;;10.47;9.90;;;;;;;3.55;73.49;92338.81;5013509;28;20222;-76
2024/01/16 10:51:30;;;;;;;11.13;10.53;;;;;;;3.76;73.41;92341.34;5004022;28;20175;-76
2024/01/16 10:53:59;;;;;;;10.93;10.43;;;;;;;3.71;73.12;92340.50;5025250;28;20254;-77
2024/01/16 10:56:28;;;;;;;10.60;10.10;;;;;;;3.48;72.16;92323.50;5028732;28;20222;-76
2024/01/16 10:59:12;;;;;;;10.83;10.30;;;;;;;3.52;73.07;92341.88;5030396;28;20210;-78
2024/01/16 11:01:40;;;;;;;11.43;10.83;;;;;;;3.62;72.57;92340.19;5030581;28;20222;-77
2024/01/16 11:04:07;;;;;;;11.63;11.10;;;;;;;3.83;71.76;92334.19;5028750;28;20201;-78
2024/01/16 11:06:33;;;;;;;9.93;9.53;;;;;;;4.01;70.54;92348.53;5027225;28;20274;-77
2024/01/16 11:09:00;;;;;;;12.00;11.10;;;;;;;4.04;69.77;92341.09;5062870;28;20174;-77
2024/01/16 11:11:28;;;;;;;10.40;9.80;;;;;;;4.08;71.02;92349.91;5018949;28;20213;-78
2024/01/16 11:13:54;;;;;;;11.30;10.57;;;;;;;4.34;70.10;92354.25;5006619;28;20200;-78
2024/01/16 11:16:21;;;;;;;11.47;10.43;;;;;;;4.47;69.31;92348.66;5000316;28;20239;-78
2024/01/16 11:18:46;;;;;;;10.77;10.13;;;;;;;4.14;69.27;92354.09;5000598;28;20305;-79